Startpagina
METAR-TAF:

METAR-TAF

Vliegvelden :

Curaçao, Nederlandse Antillen

Curaçao International Airport

breedte: 12-12N, lengte: 068-58W, hoogte: 9 m

Actueel weer

Dit bericht is 40 minuten geleden gemaakt, om 08:00 UTC
Wind 9 kt uit het oostzuidoosten
Temperatuur 26°C
Vochtigheid 79%
Druk 1012 hPa
Zicht 10 km of meer

METAR: TNCC 220800Z AUTO 12009KT 9999 NCD 26/22 Q1012

Tijdstip: 04:40 (08:40 UTC)

Verwachting

Dit bericht is 4 uur en het 40 minuten geleden gemaakt, om 04:00 UTC
Verwachting geldig van 22 om 06 UTC tot 23 om 06 UTC
Wind 13 kt uit het oosten
Zicht 10 km of meer
Verspreide wolken op 2000 ft
Tijdelijke
van 22 om 06 UTC tot 22 om 16 UTC
Gebroken wolken op 1500 ft

TAF: TNCC 220400Z 2206/2306 10013KT 9999 SCT020 TEMPO 2206/2216 BKN015

Waarnemingen en weersverwachtingen van meer dan 4000 vliegvelden (METAR en TAF).

De beschikbare stations zijn de gele en rode punten op de kaart.

Ga met uw muis naar het station om de naam te zien.

Klik dan om waarnemingen en weersverwachtingen te zien.

kaart wijzigen: klik op de groene knoppen met een zwart kruis om in te zoomen, op de groene knop met een streepje om uit te zoomen of op de groene pijlen voor aangrenzende kaarten.


METAR-TAF: